Time;durP1;ratioP1;P1;durP2;ratioP2;P2;SDS_P1;SDS_P2;PMS_P1;PMS_P2;Temp;Humidity;BMP_temperature;BMP_pressure;BME280_temperature;BME280_humidity;BME280_pressure;Samples;Min_cycle;Max_cycle;Signal;HPM_P1;HPM_P2
2022/12/06 00:01:08;;;;;;;13.40;3.92;;;5.40;99.90;;;;;;5054284;28;20041;-52
2022/12/06 00:03:34;;;;;;;8.90;3.60;;;5.20;99.90;;;;;;5054051;28;20044;-52
2022/12/06 00:06:09;;;;;;;15.35;3.60;;;5.40;99.90;;;;;;5054206;28;20057;-51
2022/12/06 00:08:36;;;;;;;10.77;4.03;;;5.20;99.90;;;;;;5054263;28;20045;-52
2022/12/06 00:11:10;;;;;;;9.60;3.53;;;5.30;99.90;;;;;;5054304;28;20044;-52
2022/12/06 00:13:36;;;;;;;10.70;3.20;;;5.10;99.90;;;;;;5054139;28;20044;-52
2022/12/06 00:16:04;;;;;;;7.85;2.90;;;5.30;99.90;;;;;;5054129;28;20037;-52
2022/12/06 00:18:33;;;;;;;16.20;3.38;;;5.20;99.90;;;;;;5054149;28;20037;-53
2022/12/06 00:21:12;;;;;;;9.93;3.45;;;5.30;99.90;;;;;;5036141;28;20354;-52
2022/12/06 00:23:40;;;;;;;9.80;3.20;;;5.20;99.90;;;;;;5053946;28;20052;-54
2022/12/06 00:26:07;;;;;;;9.15;3.35;;;5.40;99.90;;;;;;5053640;28;20044;-55
2022/12/06 00:28:34;;;;;;;8.25;3.30;;;5.20;99.90;;;;;;5053715;28;20168;-55
2022/12/06 00:31:01;;;;;;;9.52;3.13;;;5.10;99.90;;;;;;5053971;28;20041;-54
2022/12/06 00:33:28;;;;;;;9.10;3.55;;;5.30;99.90;;;;;;5053849;28;20045;-53
2022/12/06 00:35:58;;;;;;;12.45;3.30;;;5.10;99.90;;;;;;5053352;28;20171;-55
2022/12/06 00:38:26;;;;;;;8.45;3.20;;;5.10;99.90;;;;;;5053565;28;20175;-55
2022/12/06 00:41:03;;;;;;;10.02;3.53;;;5.20;99.90;;;;;;5053452;28;20037;-52
2022/12/06 00:43:30;;;;;;;10.98;2.58;;;5.30;99.90;;;;;;5035611;28;20092;-55
2022/12/06 00:45:56;;;;;;;12.00;2.78;;;5.30;99.90;;;;;;5053559;28;20045;-52
2022/12/06 00:48:22;;;;;;;9.23;3.20;;;5.20;99.90;;;;;;5053228;28;20400;-52
2022/12/06 00:50:48;;;;;;;9.57;2.88;;;5.20;99.90;;;;;;5053359;28;20056;-55
2022/12/06 00:53:14;;;;;;;7.03;2.50;;;5.30;99.90;;;;;;5052172;28;20039;-54
2022/12/06 00:55:41;;;;;;;10.48;2.63;;;5.30;99.90;;;;;;5051355;28;20691;-55
2022/12/06 00:58:06;;;;;;;10.77;2.60;;;5.10;99.90;;;;;;5033219;28;20038;-55
2022/12/06 01:00:32;;;;;;;9.07;2.70;;;5.30;99.90;;;;;;5033214;28;20033;-53
2022/12/06 01:02:58;;;;;;;8.40;2.30;;;5.10;99.90;;;;;;5033115;28;20374;-52
2022/12/06 01:05:24;;;;;;;7.25;1.92;;;5.10;99.90;;;;;;5032947;28;20470;-53
2022/12/06 01:07:49;;;;;;;5.20;2.10;;;5.10;99.90;;;;;;5032927;28;20497;-53
2022/12/06 01:10:15;;;;;;;7.55;1.70;;;5.30;99.90;;;;;;5032787;28;20043;-52
2022/12/06 01:12:41;;;;;;;8.75;1.95;;;5.10;99.90;;;;;;5032517;28;20079;-51
2022/12/06 01:15:07;;;;;;;5.80;1.42;;;5.00;99.90;;;;;;5032687;28;20086;-51
2022/12/06 01:17:34;;;;;;;7.47;1.33;;;5.10;99.90;;;;;;5033016;28;20133;-51
2022/12/06 01:19:59;;;;;;;5.20;1.30;;;5.00;99.90;;;;;;5032874;28;20049;-51
2022/12/06 01:22:26;;;;;;;8.65;1.58;;;5.00;99.90;;;;;;5033076;28;20041;-51
2022/12/06 01:24:51;;;;;;;4.50;1.33;;;5.10;99.90;;;;;;5032907;28;20060;-52
2022/12/06 01:27:17;;;;;;;4.90;1.70;;;5.00;99.90;;;;;;5032507;28;20386;-52
2022/12/06 01:29:43;;;;;;;3.85;1.10;;;5.00;99.90;;;;;;5011478;28;20057;-55
2022/12/06 01:32:08;;;;;;;5.00;1.17;;;5.10;99.90;;;;;;5013073;28;20406;-55
2022/12/06 01:34:34;;;;;;;5.35;1.20;;;5.00;99.90;;;;;;5012917;28;20042;-51
2022/12/06 01:36:59;;;;;;;5.30;1.20;;;4.90;99.90;;;;;;5013023;28;20044;-55
2022/12/06 01:39:25;;;;;;;5.07;1.40;;;4.80;99.90;;;;;;5013080;28;20165;-55
2022/12/06 01:41:51;;;;;;;4.97;1.33;;;4.80;99.90;;;;;;5013049;28;20077;-53
2022/12/06 01:44:57;;;;;;;4.95;1.30;;;4.80;99.90;;;;;;5011465;28;20549;-52
2022/12/06 01:47:32;;;;;;;7.47;2.13;;;4.80;99.90;;;;;;4955225;28;20137;-55
2022/12/06 01:49:57;;;;;;;3.50;1.15;;;4.80;99.90;;;;;;4971250;28;20043;-53
2022/12/06 01:52:28;;;;;;;5.63;1.88;;;5.00;99.90;;;;;;4993583;28;20056;-53
2022/12/06 01:54:54;;;;;;;4.25;1.20;;;4.80;99.90;;;;;;5012732;28;20049;-55
2022/12/06 01:57:20;;;;;;;3.85;1.50;;;4.90;99.90;;;;;;5027689;28;20105;-54
2022/12/06 01:59:46;;;;;;;7.90;1.55;;;4.90;99.90;;;;;;5032164;28;20053;-52
2022/12/06 02:02:12;;;;;;;6.75;1.80;;;5.00;99.90;;;;;;5031367;28;20033;-54
2022/12/06 02:04:38;;;;;;;6.38;1.67;;;5.00;99.90;;;;;;5031631;28;20044;-55
2022/12/06 02:07:06;;;;;;;6.78;1.60;;;4.90;99.90;;;;;;5032370;28;20141;-53
2022/12/06 02:09:32;;;;;;;5.20;1.52;;;4.80;99.90;;;;;;5031942;28;20045;-55
2022/12/06 02:11:57;;;;;;;4.25;1.42;;;4.90;99.90;;;;;;5032138;28;20405;-55
2022/12/06 02:14:32;;;;;;;4.85;1.55;;;4.80;99.90;;;;;;5032029;28;20124;-55
2022/12/06 02:17:00;;;;;;;8.63;2.58;;;5.00;99.90;;;;;;5031916;28;20129;-54
2022/12/06 02:20:03;;;;;;;4.63;1.60;;;4.80;99.90;;;;;;5032033;28;20034;-52
2022/12/06 02:22:54;;;;;;;6.63;1.80;;;4.90;99.90;;;;;;5031986;28;20478;-51
2022/12/06 02:25:49;;;;;;;4.35;1.60;;;5.00;99.90;;;;;;5031889;28;20038;-55
2022/12/06 02:28:20;;;;;;;9.10;2.08;;;5.00;99.90;;;;;;5035040;28;20097;-53
2022/12/06 02:31:07;;;;;;;5.95;1.75;;;5.10;99.90;;;;;;5051989;28;20053;-55
2022/12/06 02:33:45;;;;;;;6.05;1.88;;;4.90;99.90;;;;;;5051888;28;20037;-52
2022/12/06 02:36:29;;;;;;;8.82;3.25;;;4.90;99.90;;;;;;5051726;28;20611;-51
2022/12/06 02:39:16;;;;;;;6.43;1.88;;;5.10;99.90;;;;;;5051726;28;20080;-54
2022/12/06 02:42:01;;;;;;;6.13;2.30;;;5.10;99.90;;;;;;5051966;28;20033;-53
2022/12/06 02:44:34;;;;;;;9.90;2.17;;;5.10;99.90;;;;;;5051480;28;20504;-51
2022/12/06 02:47:02;;;;;;;7.63;2.13;;;5.10;99.90;;;;;;5051973;28;20041;-52
2022/12/06 02:49:32;;;;;;;5.95;1.80;;;5.00;99.90;;;;;;5051834;28;20087;-57
2022/12/06 02:51:58;;;;;;;6.85;2.30;;;5.10;99.90;;;;;;5033856;28;20045;-54
2022/12/06 02:54:25;;;;;;;4.38;1.98;;;5.10;99.90;;;;;;5051432;28;20044;-55
2022/12/06 02:56:51;;;;;;;6.72;2.70;;;5.20;99.90;;;;;;5040320;28;20037;-55
2022/12/06 02:59:17;;;;;;;6.10;2.10;;;5.20;99.90;;;;;;5031427;28;20045;-54
2022/12/06 03:01:48;;;;;;;8.30;2.25;;;5.10;99.90;;;;;;5031993;28;20045;-51
2022/12/06 03:04:46;;;;;;;8.13;2.08;;;5.20;99.90;;;;;;5031687;28;20084;-51
2022/12/06 03:07:27;;;;;;;6.07;1.88;;;5.10;99.90;;;;;;5045566;28;20048;-52
2022/12/06 03:09:55;;;;;;;6.28;2.17;;;4.90;99.90;;;;;;5051507;28;20103;-51
2022/12/06 03:12:46;;;;;;;8.55;2.08;;;5.10;99.90;;;;;;5051430;28;20041;-56
2022/12/06 03:15:19;;;;;;;5.88;1.88;;;5.10;99.90;;;;;;5051460;28;20041;-52
2022/12/06 03:18:18;;;;;;;6.47;1.70;;;5.00;99.90;;;;;;5054093;28;20362;-54
2022/12/06 03:21:05;;;;;;;5.15;1.50;;;4.80;99.90;;;;;;5054942;28;20129;-54
2022/12/06 03:23:38;;;;;;;5.35;1.60;;;4.90;99.90;;;;;;5054965;28;20033;-53
2022/12/06 03:26:05;;;;;;;6.25;1.45;;;5.00;99.90;;;;;;5055130;28;20049;-54
2022/12/06 03:28:34;;;;;;;6.40;1.90;;;4.70;99.90;;;;;;5054712;28;20087;-53
2022/12/06 03:31:04;;;;;;;3.80;1.30;;;5.00;99.90;;;;;;5037106;28;20048;-55
2022/12/06 03:33:33;;;;;;;3.03;1.20;;;4.90;99.90;;;;;;5054731;28;20048;-53
2022/12/06 03:36:00;;;;;;;4.95;1.50;;;4.70;99.90;;;;;;5054591;28;20037;-52
2022/12/06 03:38:32;;;;;;;4.18;1.40;;;4.70;99.90;;;;;;5054674;28;20037;-53
2022/12/06 03:41:02;;;;;;;6.05;1.38;;;4.60;99.90;;;;;;5054865;28;20033;-55
2022/12/06 03:43:28;;;;;;;5.63;1.27;;;4.60;99.90;;;;;;5054719;28;20083;-53
2022/12/06 03:46:06;;;;;;;6.15;1.40;;;4.60;99.90;;;;;;5054595;28;20041;-52
2022/12/06 03:48:37;;;;;;;5.43;1.38;;;4.80;99.90;;;;;;5054474;28;20481;-54
2022/12/06 03:51:17;;;;;;;10.57;2.78;;;4.40;99.90;;;;;;5054651;28;20036;-50
2022/12/06 03:53:49;;;;;;;4.53;1.40;;;4.30;99.90;;;;;;5054317;28;20508;-56
2022/12/06 03:56:15;;;;;;;4.10;1.67;;;4.40;99.90;;;;;;5047574;28;20493;-55
2022/12/06 03:58:41;;;;;;;3.78;1.48;;;4.40;99.90;;;;;;5000354;28;20044;-54
2022/12/06 04:01:06;;;;;;;5.22;1.35;;;4.30;99.90;;;;;;5034253;28;20052;-52
2022/12/06 04:03:32;;;;;;;3.90;1.30;;;4.30;99.90;;;;;;5034284;28;20103;-54
2022/12/06 04:06:01;;;;;;;5.40;1.30;;;4.30;99.90;;;;;;5034443;28;20405;-52
2022/12/06 04:08:26;;;;;;;5.15;1.50;;;4.30;99.90;;;;;;5034421;28;20053;-53
2022/12/06 04:10:52;;;;;;;4.65;1.50;;;4.50;99.90;;;;;;5034414;28;20072;-53
2022/12/06 04:13:18;;;;;;;5.68;1.67;;;4.30;99.90;;;;;;5034050;28;20363;-52
2022/12/06 04:15:43;;;;;;;5.78;1.70;;;4.40;99.90;;;;;;5033945;28;20046;-53
2022/12/06 04:18:13;;;;;;;4.57;1.60;;;4.10;99.90;;;;;;5034001;28;20044;-52
2022/12/06 04:23:43;;;;;;;5.25;1.60;;;4.10;99.90;;;;;;5034099;28;20390;-52
2022/12/06 04:26:11;;;;;;;5.72;1.60;;;4.20;99.90;;;;;;5033794;28;20052;-55
2022/12/06 04:39:35;;;;;;;5.95;2.67;;;4.00;99.90;;;;;;5033648;28;20159;-52
2022/12/06 04:44:46;;;;;;;4.82;1.70;;;3.70;99.90;;;;;;5033750;28;20080;-54
2022/12/06 04:47:12;;;;;;;6.32;1.75;;;3.70;99.90;;;;;;5033330;28;20738;-55
2022/12/06 04:49:38;;;;;;;7.18;1.80;;;3.50;99.90;;;;;;5033734;28;20436;-55
2022/12/06 04:52:06;;;;;;;6.18;1.73;;;3.60;99.90;;;;;;5033518;28;20048;-52
2022/12/06 04:54:32;;;;;;;6.07;1.83;;;3.70;99.90;;;;;;5033229;28;20481;-54
2022/12/06 04:56:58;;;;;;;5.03;1.85;;;3.40;99.90;;;;;;5045691;28;20025;-56
2022/12/06 04:59:25;;;;;;;8.15;2.33;;;3.70;99.90;;;;;;5052882;28;20033;-53
2022/12/06 05:01:51;;;;;;;6.93;2.13;;;3.70;99.90;;;;;;5052778;28;20033;-51
2022/12/06 05:04:17;;;;;;;5.57;2.30;;;3.40;99.90;;;;;;5053149;28;20107;-51
2022/12/06 05:06:43;;;;;;;6.25;2.28;;;3.70;99.90;;;;;;5052833;28;20128;-51
2022/12/06 05:09:08;;;;;;;7.70;2.17;;;3.70;99.90;;;;;;5053045;28;20038;-51
2022/12/06 05:11:34;;;;;;;7.18;2.17;;;3.60;99.90;;;;;;5035305;28;20047;-51
2022/12/06 05:14:00;;;;;;;6.85;2.13;;;3.70;99.90;;;;;;5052702;28;20033;-51
2022/12/06 05:16:26;;;;;;;7.50;2.53;;;3.50;99.90;;;;;;5052924;28;20055;-51
2022/12/06 05:18:51;;;;;;;7.25;2.92;;;3.60;99.90;;;;;;5052958;28;20085;-51
2022/12/06 05:21:20;;;;;;;5.07;2.15;;;3.70;99.90;;;;;;5053007;28;20102;-53
2022/12/06 05:23:46;;;;;;;6.63;2.63;;;3.90;99.90;;;;;;5052834;28;20037;-51
2022/12/06 05:26:17;;;;;;;6.15;2.75;;;3.80;99.90;;;;;;5052748;28;20041;-52
2022/12/06 05:28:44;;;;;;;5.30;2.13;;;3.90;99.90;;;;;;5052500;28;20187;-52
2022/12/06 05:31:11;;;;;;;7.00;2.28;;;3.70;99.90;;;;;;5052539;28;20056;-52
2022/12/06 05:33:37;;;;;;;6.30;2.10;;;3.60;99.90;;;;;;5052440;28;20094;-51
2022/12/06 05:36:11;;;;;;;6.60;2.40;;;3.50;99.90;;;;;;5052535;28;20041;-52
2022/12/06 05:38:37;;;;;;;7.25;2.53;;;3.70;99.90;;;;;;5052199;28;20083;-51
2022/12/06 05:41:03;;;;;;;8.50;2.20;;;3.70;99.90;;;;;;5051917;28;20076;-52
2022/12/06 05:43:29;;;;;;;6.30;2.28;;;3.70;99.90;;;;;;5052413;28;20037;-54
2022/12/06 05:45:56;;;;;;;7.03;1.95;;;3.70;99.90;;;;;;5052474;28;20045;-51
2022/12/06 05:48:21;;;;;;;4.78;1.73;;;3.40;99.90;;;;;;5034318;28;20045;-55
2022/12/06 05:50:48;;;;;;;5.50;1.85;;;3.30;99.90;;;;;;5052182;28;20060;-51
2022/12/06 05:53:14;;;;;;;6.32;2.60;;;3.10;99.90;;;;;;5052081;28;20072;-51
2022/12/06 05:55:40;;;;;;;6.40;2.30;;;3.50;99.90;;;;;;5052218;28;20394;-51
2022/12/06 05:58:06;;;;;;;8.55;2.30;;;3.60;99.90;;;;;;5034172;28;20396;-55
2022/12/06 06:00:32;;;;;;;6.20;2.80;;;3.50;99.90;;;;;;5034302;28;20045;-52
2022/12/06 06:02:58;;;;;;;5.32;2.30;;;3.70;99.90;;;;;;5052210;28;20041;-51
2022/12/06 06:05:23;;;;;;;5.90;2.33;;;3.50;99.90;;;;;;5052394;28;20053;-53
2022/12/06 06:07:49;;;;;;;7.30;2.80;;;3.70;99.90;;;;;;5052070;28;20040;-55
2022/12/06 06:10:15;;;;;;;7.03;2.75;;;3.60;99.90;;;;;;5052245;28;20523;-56
2022/12/06 06:12:43;;;;;;;9.18;2.65;;;3.90;99.90;;;;;;5051807;28;20064;-55
2022/12/06 06:15:13;;;;;;;8.25;2.53;;;3.80;99.90;;;;;;5052189;28;20110;-56
2022/12/06 06:17:39;;;;;;;7.05;2.47;;;3.80;99.90;;;;;;5051995;28;20102;-56
2022/12/06 06:20:06;;;;;;;6.18;2.40;;;3.90;99.90;;;;;;5051875;28;20071;-56
2022/12/06 06:22:34;;;;;;;5.45;2.20;;;3.70;99.90;;;;;;5052182;28;20063;-56
2022/12/06 06:25:00;;;;;;;7.65;2.03;;;3.70;99.90;;;;;;5051930;28;20098;-54
2022/12/06 06:27:26;;;;;;;6.05;2.20;;;3.50;99.90;;;;;;5051952;28;20045;-52
2022/12/06 06:29:51;;;;;;;7.75;1.88;;;3.80;99.90;;;;;;5051789;28;20072;-53
2022/12/06 06:32:17;;;;;;;5.70;2.00;;;3.60;99.90;;;;;;5051781;28;20080;-52
2022/12/06 06:34:43;;;;;;;6.07;2.28;;;3.30;99.90;;;;;;5033956;28;20069;-51
2022/12/06 06:37:09;;;;;;;7.22;2.78;;;3.40;99.90;;;;;;5052012;28;20128;-52
2022/12/06 06:39:34;;;;;;;6.97;2.25;;;3.40;99.90;;;;;;5051589;28;20166;-52
2022/12/06 06:42:00;;;;;;;5.43;2.22;;;3.30;99.90;;;;;;5052058;28;20036;-54
2022/12/06 06:44:26;;;;;;;6.07;2.47;;;3.10;99.90;;;;;;5051833;28;20434;-52
2022/12/06 06:46:51;;;;;;;7.20;2.42;;;3.20;99.90;;;;;;5051908;28;20422;-52
2022/12/06 06:49:17;;;;;;;6.45;2.13;;;3.10;99.90;;;;;;5033059;28;20064;-53
2022/12/06 06:51:44;;;;;;;5.85;2.55;;;3.10;99.90;;;;;;5016990;28;20089;-52
2022/12/06 06:54:11;;;;;;;6.53;2.00;;;3.00;99.90;;;;;;5017162;28;20050;-54
2022/12/06 06:56:37;;;;;;;5.72;2.33;;;3.20;99.90;;;;;;5043345;28;20041;-51
2022/12/06 06:59:03;;;;;;;5.45;2.40;;;3.10;99.90;;;;;;5040460;28;20044;-51
2022/12/06 07:01:29;;;;;;;7.43;2.35;;;3.10;99.90;;;;;;5034170;28;20041;-52
2022/12/06 07:03:55;;;;;;;9.57;2.40;;;3.10;99.90;;;;;;5034544;28;20044;-51
2022/12/06 07:06:21;;;;;;;5.97;2.60;;;3.10;99.90;;;;;;5034722;28;20454;-52
2022/12/06 07:08:46;;;;;;;7.10;2.25;;;3.00;99.90;;;;;;5034269;28;20120;-54
2022/12/06 07:11:13;;;;;;;7.10;2.30;;;3.00;99.90;;;;;;5016339;28;20053;-52
2022/12/06 07:13:41;;;;;;;6.50;2.42;;;3.20;99.90;;;;;;5034568;28;20128;-55
2022/12/06 07:16:11;;;;;;;6.85;2.58;;;3.20;99.90;;;;;;5034386;28;20052;-53
2022/12/06 07:18:36;;;;;;;7.05;2.58;;;3.20;99.90;;;;;;5034304;28;20462;-51
2022/12/06 07:21:07;;;;;;;6.10;2.05;;;3.20;99.90;;;;;;5034210;28;20053;-56
2022/12/06 07:23:34;;;;;;;5.47;2.35;;;3.10;99.90;;;;;;5016500;28;20041;-55
2022/12/06 07:26:10;;;;;;;7.15;2.95;;;3.20;99.90;;;;;;5034453;28;20041;-52
2022/12/06 07:28:38;;;;;;;9.57;2.97;;;2.90;99.90;;;;;;5033908;28;20785;-52
2022/12/06 07:31:29;;;;;;;9.00;2.80;;;3.10;99.90;;;;;;5033973;28;20088;-55
2022/12/06 07:34:00;;;;;;;9.45;4.40;;;3.00;99.90;;;;;;5034195;28;20056;-53
2022/12/06 07:36:28;;;;;;;14.82;6.88;;;2.80;99.90;;;;;;5016095;28;20056;-52
2022/12/06 07:38:56;;;;;;;14.52;7.20;;;2.70;99.90;;;;;;5034000;28;20061;-54
2022/12/06 07:46:56;;;;;;;7.75;2.58;;;2.80;99.90;;;;;;5039835;28;20178;-55
2022/12/06 07:49:22;;;;;;;6.60;2.53;;;2.80;99.90;;;;;;5042831;28;20044;-55
2022/12/06 07:51:48;;;;;;;8.23;3.05;;;3.00;99.90;;;;;;5015996;28;20042;-55
2022/12/06 07:54:15;;;;;;;6.55;2.08;;;2.90;99.90;;;;;;5033953;28;20056;-54
2022/12/06 07:56:41;;;;;;;7.20;3.10;;;2.70;99.90;;;;;;5043896;28;20045;-55
2022/12/06 07:59:07;;;;;;;8.68;2.97;;;3.10;99.90;;;;;;5045556;28;20385;-55
2022/12/06 08:01:33;;;;;;;5.72;2.10;;;3.00;99.90;;;;;;5033791;28;20037;-54
2022/12/06 08:04:00;;;;;;;6.25;2.35;;;2.90;99.90;;;;;;5032875;28;20099;-56
2022/12/06 08:06:26;;;;;;;7.50;1.88;;;3.20;99.90;;;;;;5033092;28;20111;-56
2022/12/06 08:08:52;;;;;;;6.47;2.05;;;3.20;99.90;;;;;;5033345;28;20045;-52
2022/12/06 08:11:19;;;;;;;6.43;3.10;;;3.40;99.90;;;;;;5033323;28;20041;-56
2022/12/06 08:13:45;;;;;;;6.55;2.30;;;3.20;99.90;;;;;;5033495;28;20049;-55
2022/12/06 08:16:11;;;;;;;4.75;1.98;;;3.20;99.90;;;;;;5033122;28;20484;-56
2022/12/06 08:18:38;;;;;;;4.32;1.83;;;3.40;99.90;;;;;;5033297;28;20096;-53
2022/12/06 08:21:05;;;;;;;6.32;2.30;;;3.50;99.90;;;;;;5033034;28;20577;-53
2022/12/06 08:23:31;;;;;;;5.90;1.80;;;3.30;99.90;;;;;;5033104;28;20522;-55
2022/12/06 08:26:01;;;;;;;7.93;2.53;;;3.20;99.90;;;;;;5032980;28;20060;-53
2022/12/06 08:28:28;;;;;;;6.40;2.17;;;3.30;99.90;;;;;;5033016;28;20045;-54
2022/12/06 08:30:54;;;;;;;7.07;1.98;;;3.50;99.90;;;;;;5032869;28;20097;-52
2022/12/06 08:33:20;;;;;;;7.20;2.10;;;3.50;99.90;;;;;;5032984;28;20072;-52
2022/12/06 08:35:47;;;;;;;8.02;3.05;;;3.60;99.90;;;;;;5032702;28;20507;-54
2022/12/06 08:38:13;;;;;;;5.53;2.10;;;3.60;99.90;;;;;;5014954;28;20068;-52
2022/12/06 08:40:39;;;;;;;10.05;2.45;;;3.60;99.90;;;;;;5032656;28;20053;-54
2022/12/06 08:43:05;;;;;;;6.43;2.28;;;3.50;99.90;;;;;;5014425;28;20041;-56
2022/12/06 08:45:31;;;;;;;6.63;2.08;;;3.70;99.90;;;;;;5032781;28;20072;-52
2022/12/06 08:47:57;;;;;;;6.90;2.15;;;3.60;99.90;;;;;;5014801;28;20092;-51
2022/12/06 08:50:23;;;;;;;6.00;2.30;;;3.60;99.90;;;;;;5032335;28;20072;-55
2022/12/06 08:52:48;;;;;;;7.47;2.75;;;3.80;99.90;;;;;;5032132;28;20049;-56
2022/12/06 08:55:14;;;;;;;7.05;2.42;;;3.80;99.90;;;;;;5014049;28;20064;-53
2022/12/06 08:57:40;;;;;;;7.90;2.50;;;3.90;99.90;;;;;;5050540;28;20588;-53
2022/12/06 09:00:07;;;;;;;5.35;2.25;;;3.70;99.90;;;;;;5052231;28;20477;-54
2022/12/06 09:02:33;;;;;;;7.50;2.67;;;3.70;99.90;;;;;;5052218;28;20037;-53
2022/12/06 09:04:58;;;;;;;5.65;2.22;;;3.60;99.90;;;;;;5052342;28;20068;-53
2022/12/06 09:07:25;;;;;;;7.53;2.60;;;3.80;99.90;;;;;;5034528;28;20041;-53
2022/12/06 09:09:53;;;;;;;15.35;3.53;;;3.80;99.90;;;;;;5052474;28;20098;-54
2022/12/06 09:12:19;;;;;;;7.75;3.35;;;3.70;99.90;;;;;;5052286;28;20071;-54
2022/12/06 09:14:45;;;;;;;8.77;2.25;;;3.60;99.90;;;;;;5050908;28;21976;-52
2022/12/06 09:17:10;;;;;;;5.60;2.25;;;3.60;99.90;;;;;;5052163;28;20048;-52
2022/12/06 09:19:36;;;;;;;7.25;2.20;;;3.60;99.90;;;;;;5033929;28;20049;-53
2022/12/06 09:22:02;;;;;;;5.90;2.50;;;3.60;99.90;;;;;;5051485;28;20094;-55
2022/12/06 09:24:28;;;;;;;8.63;2.30;;;3.60;99.90;;;;;;5033446;28;20052;-54
2022/12/06 09:26:54;;;;;;;7.63;2.67;;;3.80;99.90;;;;;;5051445;28;20037;-54
2022/12/06 09:29:20;;;;;;;7.80;3.20;;;3.70;99.90;;;;;;5051658;28;20048;-55
2022/12/06 09:31:46;;;;;;;9.80;2.88;;;3.90;99.90;;;;;;5051878;28;20063;-53
2022/12/06 09:34:12;;;;;;;7.40;3.00;;;3.80;99.90;;;;;;5033718;28;20536;-53
2022/12/06 09:37:03;;;;;;;8.02;2.53;;;3.90;99.90;;;;;;5051494;28;20183;-53
2022/12/06 09:39:39;;;;;;;6.72;2.65;;;4.00;99.90;;;;;;5051635;28;20082;-54
2022/12/06 09:42:18;;;;;;;9.25;3.03;;;4.00;99.90;;;;;;5033677;28;20088;-51
2022/12/06 09:45:04;;;;;;;10.73;3.97;;;4.20;99.90;;;;;;5051643;28;20037;-53
2022/12/06 09:47:46;;;;;;;9.95;2.92;;;4.10;99.90;;;;;;5051250;28;20462;-52
2022/12/06 09:50:31;;;;;;;;;;;4.20;99.90;;;;;;5052009;28;20485;-52
2022/12/06 09:53:15;;;;;;;6.40;2.33;;;4.40;99.90;;;;;;5042881;28;20000;-51
2022/12/06 09:55:52;;;;;;;9.45;3.10;;;4.60;99.90;;;;;;5042687;28;20044;-56
2022/12/06 09:58:32;;;;;;;9.45;3.72;;;4.50;99.90;;;;;;5039988;28;20043;-54
2022/12/06 10:01:27;;;;;;;8.77;3.55;;;4.50;99.90;;;;;;5039499;28;20124;-52
2022/12/06 10:04:29;;;;;;;9.20;2.47;;;4.50;99.90;;;;;;5031127;28;20053;-53
2022/12/06 10:07:13;;;;;;;5.75;2.22;;;4.80;99.90;;;;;;5040219;28;20113;-53
2022/12/06 10:09:55;;;;;;;6.30;2.00;;;4.70;99.90;;;;;;5022680;28;20049;-53
2022/12/06 10:12:36;;;;;;;5.93;2.20;;;4.70;99.90;;;;;;5036373;28;20033;-54
2022/12/06 10:15:27;;;;;;;6.70;2.53;;;4.70;99.90;;;;;;5030763;28;20077;-54
2022/12/06 10:18:19;;;;;;;5.25;2.15;;;4.80;99.90;;;;;;5031278;28;20072;-53
2022/12/06 10:21:11;;;;;;;8.25;2.53;;;4.90;99.90;;;;;;5013529;28;20041;-51
2022/12/06 10:23:58;;;;;;;6.20;2.25;;;5.10;99.90;;;;;;5032162;28;20113;-55
2022/12/06 10:26:50;;;;;;;7.63;2.42;;;5.10;99.90;;;;;;5033989;28;20075;-57
2022/12/06 10:29:19;;;;;;;5.93;2.33;;;5.10;99.90;;;;;;5017459;28;20065;-55
2022/12/06 10:31:58;;;;;;;7.97;2.75;;;5.10;99.90;;;;;;5035823;28;20061;-55
2022/12/06 10:34:36;;;;;;;5.93;2.20;;;5.20;99.90;;;;;;5035884;28;20047;-52
2022/12/06 10:37:36;;;;;;;7.93;2.13;;;5.20;99.90;;;;;;5035777;28;20045;-53
2022/12/06 10:40:29;;;;;;;8.93;2.13;;;5.30;99.90;;;;;;5036079;28;20038;-52
2022/12/06 10:43:12;;;;;;;5.88;1.85;;;5.30;99.90;;;;;;5035707;28;20401;-54
2022/12/06 10:49:06;;;;;;;;;;;5.40;99.90;;;;;;5016610;28;20581;-52
2022/12/06 10:51:52;;;;;;;4.50;1.90;;;5.50;99.90;;;;;;5035367;28;19917;-54
2022/12/06 10:54:41;;;;;;;5.35;1.75;;;5.50;99.90;;;;;;5035869;28;20047;-52
2022/12/06 10:57:33;;;;;;;5.90;1.73;;;5.30;99.90;;;;;;5049160;28;20400;-51
2022/12/06 11:00:11;;;;;;;4.68;2.13;;;5.50;99.90;;;;;;5055370;28;20041;-53
2022/12/06 11:02:46;;;;;;;5.40;1.95;;;5.50;99.90;;;;;;5054701;28;20045;-52
2022/12/06 11:05:39;;;;;;;5.05;1.65;;;5.50;99.90;;;;;;5054739;28;20469;-54
2022/12/06 11:08:17;;;;;;;4.10;1.60;;;5.50;99.90;;;;;;5037138;28;20109;-52
2022/12/06 11:10:44;;;;;;;3.97;1.38;;;5.60;99.90;;;;;;5055391;28;20049;-51
2022/12/06 11:13:39;;;;;;;3.65;1.40;;;5.60;99.90;;;;;;5054926;28;20108;-53
2022/12/06 11:16:25;;;;;;;4.15;1.63;;;5.60;99.90;;;;;;5054902;28;20051;-56
2022/12/06 11:18:56;;;;;;;3.88;1.50;;;5.40;99.90;;;;;;5055144;28;20033;-52
2022/12/06 11:21:48;;;;;;;3.67;1.70;;;5.60;99.90;;;;;;5055183;28;20049;-51
2022/12/06 11:24:43;;;;;;;5.70;1.73;;;5.60;99.90;;;;;;5054821;28;20524;-53
2022/12/06 11:27:33;;;;;;;4.75;1.80;;;5.50;99.90;;;;;;5006916;28;20060;-52
2022/12/06 11:30:01;;;;;;;5.10;1.67;;;5.60;99.90;;;;;;5037158;28;20172;-53
2022/12/06 11:32:27;;;;;;;5.68;1.55;;;5.50;99.90;;;;;;5054882;28;20044;-52
2022/12/06 11:34:57;;;;;;;4.95;1.80;;;5.60;99.90;;;;;;5054801;28;20045;-52
2022/12/06 11:37:27;;;;;;;6.80;1.63;;;5.50;99.90;;;;;;5053923;28;20404;-52
2022/12/06 11:40:27;;;;;;;6.32;2.00;;;5.40;99.90;;;;;;5054688;28;20043;-53
2022/12/06 11:42:54;;;;;;;8.93;2.25;;;5.50;99.90;;;;;;5026453;28;20049;-53
2022/12/06 11:45:30;;;;;;;5.43;2.22;;;5.70;99.90;;;;;;5054706;28;20041;-55
2022/12/06 11:47:58;;;;;;;6.22;2.58;;;5.70;99.90;;;;;;5041348;28;20046;-53
2022/12/06 11:50:28;;;;;;;7.40;2.65;;;5.80;99.90;;;;;;5034561;28;20041;-56
2022/12/06 11:52:56;;;;;;;9.55;1.60;;;6.10;99.90;;;;;;5034548;28;20433;-56
2022/12/06 11:55:26;;;;;;;6.70;2.53;;;6.20;99.90;;;;;;5016442;28;20042;-56
2022/12/06 11:58:10;;;;;;;6.28;2.20;;;6.00;99.90;;;;;;5034093;28;20095;-54
2022/12/06 12:00:36;;;;;;;6.68;2.63;;;6.10;99.90;;;;;;5034612;28;20034;-52
2022/12/06 12:03:02;;;;;;;5.65;2.33;;;6.10;99.90;;;;;;5034562;28;20370;-53
2022/12/06 12:05:37;;;;;;;6.30;2.42;;;6.30;99.90;;;;;;5034484;28;20049;-53
2022/12/06 12:08:18;;;;;;;6.13;2.40;;;6.30;99.90;;;;;;5034298;28;20124;-52
2022/12/06 12:10:58;;;;;;;5.38;2.10;;;6.30;99.90;;;;;;5034342;28;20146;-52
2022/12/06 12:16:28;;;;;;;6.70;2.33;;;6.10;99.90;;;;;;5040425;28;20049;-55
2022/12/06 12:19:26;;;;;;;6.35;2.20;;;6.20;99.90;;;;;;5036035;28;20041;-54
2022/12/06 12:21:53;;;;;;;7.07;3.25;;;6.10;99.90;;;;;;5026218;28;20135;-52
2022/12/06 12:24:40;;;;;;;8.90;2.75;;;6.20;99.90;;;;;;5053913;28;20042;-51
2022/12/06 12:27:44;;;;;;;6.07;2.63;;;6.10;99.90;;;;;;5053970;28;20045;-52
2022/12/06 12:30:25;;;;;;;4.97;2.20;;;6.30;99.90;;;;;;5052775;28;20522;-52
2022/12/06 12:33:14;;;;;;;5.32;2.17;;;6.10;99.90;;;;;;5053770;28;20094;-52
2022/12/06 12:36:03;;;;;;;6.10;2.47;;;6.20;99.90;;;;;;5053496;28;20037;-54
2022/12/06 12:38:40;;;;;;;5.70;2.20;;;6.10;99.90;;;;;;5053372;28;20044;-51
2022/12/06 12:41:28;;;;;;;6.35;2.38;;;6.30;99.90;;;;;;5053624;28;20115;-51
2022/12/06 12:43:56;;;;;;;5.07;2.00;;;6.20;99.90;;;;;;5052948;28;20040;-54
2022/12/06 12:46:23;;;;;;;4.93;2.22;;;6.30;99.90;;;;;;5053132;28;20056;-50
2022/12/06 12:48:50;;;;;;;5.45;1.88;;;6.20;99.90;;;;;;5035537;28;20489;-51
2022/12/06 12:51:34;;;;;;;5.78;1.63;;;6.30;99.90;;;;;;5053204;28;20025;-53
2022/12/06 12:54:23;;;;;;;5.88;1.30;;;6.20;99.90;;;;;;5052941;28;20134;-51
2022/12/06 12:56:50;;;;;;;6.63;1.60;;;6.30;99.90;;;;;;5041817;28;20056;-50
2022/12/06 12:59:19;;;;;;;4.80;1.88;;;6.30;99.90;;;;;;5015904;28;20128;-50
2022/12/06 13:01:57;;;;;;;4.90;1.50;;;6.20;99.90;;;;;;5015709;28;20085;-50
2022/12/06 13:04:25;;;;;;;4.15;1.83;;;6.30;99.90;;;;;;5014915;28;20045;-50
2022/12/06 13:07:05;;;;;;;6.50;2.58;;;6.10;99.90;;;;;;5033978;28;20048;-51
2022/12/06 13:10:02;;;;;;;6.20;2.20;;;6.30;99.90;;;;;;5032893;28;20045;-53
2022/12/06 13:12:37;;;;;;;5.38;1.95;;;6.20;99.90;;;;;;5033135;28;20443;-51
2022/12/06 13:15:16;;;;;;;5.80;2.13;;;6.30;99.90;;;;;;5032918;28;20045;-50
2022/12/06 13:17:46;;;;;;;4.82;1.58;;;6.30;99.90;;;;;;5015206;28;20048;-52
2022/12/06 13:20:39;;;;;;;5.22;1.35;;;6.50;99.90;;;;;;5015051;28;20037;-50
2022/12/06 13:23:15;;;;;;;4.72;1.45;;;6.30;99.90;;;;;;5029094;28;20080;-51
2022/12/06 13:25:56;;;;;;;5.82;1.70;;;6.30;99.90;;;;;;5036144;28;20045;-55
2022/12/06 13:28:30;;;;;;;7.00;2.17;;;6.50;99.90;;;;;;5032501;28;20718;-54
2022/12/06 13:31:02;;;;;;;6.70;2.00;;;6.60;99.90;;;;;;5035814;28;20053;-55
2022/12/06 13:33:31;;;;;;;5.97;2.03;;;6.60;99.90;;;;;;5032525;28;20049;-52
2022/12/06 13:36:05;;;;;;;7.10;2.20;;;6.30;99.90;;;;;;5032414;28;20042;-54
2022/12/06 13:38:32;;;;;;;5.75;2.08;;;6.40;99.90;;;;;;5032800;28;20120;-50
2022/12/06 13:40:59;;;;;;;7.72;2.10;;;6.50;99.90;;;;;;5032424;28;20037;-51
2022/12/06 13:43:25;;;;;;;4.90;2.05;;;6.40;99.90;;;;;;5032446;28;20501;-52
2022/12/06 13:45:54;;;;;;;6.05;1.75;;;6.40;99.90;;;;;;5032422;28;20045;-52
2022/12/06 13:48:22;;;;;;;5.93;2.25;;;6.20;99.90;;;;;;5032294;28;20045;-52
2022/12/06 13:51:00;;;;;;;12.48;2.70;;;6.20;99.90;;;;;;5032485;28;20435;-53